17. August 2022

Uhrzeit Code Wetter Temp. Sichtweite Wolkendecke Wind METAR/SPECI
14:00
M
21 °C 10 km+ 1.800 ft 310° 310° 5 kt METAR LFCK 171200Z AUTO 31005KT 230V350 9999 OVC018/// ///TCU 21/16 Q1013 BECMG SCT020
13:30
M
20 °C 10 km+ 1.800 ft 300° 300° 5 kt METAR LFCK 171130Z AUTO 30005KT 260V350 9999 OVC018/// ///TCU 20/16 Q1013 BECMG NSC
13:00
M
20 °C 10 km+ 1.500 ft 320° 320° 5 kt METAR LFCK 171100Z AUTO 32005KT 270V350 9999 OVC015 20/16 Q1013 NOSIG
12:30
M
20 °C 10 km+ 1.400 ft 260° 260° 4 kt METAR LFCK 171030Z AUTO 26004KT 220V290 9999 OVC014 20/16 Q1013 BECMG NSC
12:00
M
19 °C 10 km+ 1.200 ft 270° 270° 4 kt METAR LFCK 171000Z AUTO 27004KT 240V330 9999 OVC012 19/16 Q1013 BECMG SCT020
11:30
M
19 °C 10 km+ 1.000 ft 300° 300° 5 kt METAR LFCK 170930Z AUTO 30005KT 270V330 9999 OVC010 19/16 Q1013 BECMG SCT020
11:00
M
19 °C 10 km+ 1.200 ft Var Var 2 kt METAR LFCK 170900Z AUTO VRB02KT 9999 OVC012 19/16 Q1013 BECMG SCT020
10:30
M
18 °C 10 km+ 1.100 ft Var Var 3 kt METAR LFCK 170830Z AUTO VRB03KT 9999 OVC011 18/16 Q1013 BECMG SCT020
10:00
I
18 °C 10 km+ 900 ft 260° 260° 3 kt METAR LFCK 170800Z AUTO 26003KT 9999 OVC009 18/16 Q1013 BECMG SCT020
09:30
I
18 °C 10 km+ 900 ft 270° 270° 5 kt METAR LFCK 170730Z AUTO 27005KT 9999 OVC009 18/16 Q1013 BECMG SCT020
09:00
M
18 °C 10 km+ 1.000 ft 280° 280° 5 kt METAR LFCK 170700Z AUTO 28005KT 9999 OVC010 18/16 Q1012 NOSIG
08:30
M
18 °C 10 km+ 1.000 ft 280° 280° 3 kt METAR LFCK 170630Z AUTO 28003KT 9999 OVC010 18/16 Q1012 NOSIG
08:00
M
18 °C 10 km+ 1.000 ft 270° 270° 4 kt METAR LFCK 170600Z AUTO 27004KT 9999 OVC010 18/16 Q1012
07:30
M
18 °C 10 km+ 1.100 ft 280° 280° 3 kt METAR LFCK 170530Z AUTO 28003KT 250V310 9999 OVC011 18/16 Q1012
07:00
M
18 °C 10 km+ 1.100 ft 270° 270° 3 kt METAR LFCK 170500Z AUTO 27003KT 9999 OVC011 18/16 Q1012
06:30
I
18 °C 10 km+ 900 ft 280° 280° 4 kt METAR LFCK 170430Z AUTO 28004KT 250V320 9999 BKN009 BKN018 OVC042 18/16 Q1012
06:00
I
18 °C 10 km+ 700 ft 280° 280° 9 kt METAR LFCK 170400Z AUTO 28009KT 9999 BKN007 BKN012 BKN018 18/16 Q1012
05:30
M
18 °C 10 km+ 2.300 ft 280° 280° 6 kt METAR LFCK 170330Z AUTO 28006KT 9999 BKN023 18/16 Q1012
05:00
M
19 °C 10 km+ 2.300 ft 280° 280° 5 kt METAR LFCK 170300Z AUTO 28005KT 9999 BKN023 19/16 Q1012
04:30
V
19 °C 10 km+ 4.400 ft 280° 280° 4 kt METAR LFCK 170230Z AUTO 28004KT 9999 SCT023 BKN044 19/17 Q1011
04:00
V
18 °C 10 km+ 4.300 ft Var Var 3 kt METAR LFCK 170200Z AUTO VRB03KT 9999 FEW026 BKN043 BKN140 18/17 Q1012 NOSIG
03:30
V
18 °C 10 km+ 14.000 ft 170° 170° 5 kt METAR LFCK 170130Z AUTO 17005KT 9999 FEW041 OVC140 18/16 Q1011 NOSIG
03:00
V
19 °C 10 km+ 3.600 ft Var Var 2 kt METAR LFCK 170100Z AUTO VRB02KT 9999 OVC036/// ///CB 19/17 Q1012 BECMG SCT040
02:30
V
19 °C 10 km+ 3.000 ft 260° 260° 3 kt METAR LFCK 170030Z AUTO 26003KT 9999 BKN030 BKN035 BKN072 19/17 Q1012 NOSIG
02:00
V
18 °C 10 km+ - 170° 170° 5 kt METAR LFCK 170000Z AUTO 17005KT 150V210 CAVOK 18/17 Q1011 TEMPO 28015G25KT BKN013 BKN040 FEW060CB
01:30
V
18 °C 10 km+ - Var Var 2 kt METAR LFCK 162330Z AUTO VRB02KT CAVOK 18/16 Q1010 TEMPO 28015G25KT BKN013 BKN040 FEW060CB
01:00
V
19 °C 10 km+ - 140° 140° 5 kt METAR LFCK 162300Z AUTO 14005KT 110V180 CAVOK 19/17 Q1010 TEMPO 28015G25KT BKN013 BKN040 FEW060CB
00:30
V
19 °C 10 km+ - 150° 150° 5 kt METAR LFCK 162230Z AUTO 15005KT CAVOK 19/17 Q1010 TEMPO 28015G25KT BKN013 BKN040 FEW060CB
00:00
V
19 °C 10 km+ - 150° 150° 6 kt METAR LFCK 162200Z AUTO 15006KT CAVOK 19/17 Q1010 TEMPO 28015G25KT BKN013 BKN040 FEW060CB

16. August 2022

Uhrzeit Code Wetter Temp. Sichtweite Wolkendecke Wind METAR/SPECI
23:30
V
19 °C 10 km+ - 130° 130° 6 kt METAR LFCK 162130Z AUTO 13006KT CAVOK 19/17 Q1010 TEMPO 28015G25KT BKN013 BKN040 FEW060CB
23:00
V
19 °C 10 km+ - 140° 140° 4 kt METAR LFCK 162100Z AUTO 14004KT CAVOK 19/17 Q1011 TEMPO 28015G25KT BKN013 BKN040 FEW060CB
22:30
V
20 °C 10 km+ - 130° 130° 5 kt METAR LFCK 162030Z AUTO 13005KT CAVOK 20/18 Q1011 TEMPO 28015G25KT BKN013 BKN040 FEW060CB
22:00
V
21 °C 10 km+ - 140° 140° 3 kt METAR LFCK 162000Z AUTO 14003KT CAVOK 21/18 Q1010 NOSIG
21:30
V
21 °C 10 km+ - 140° 140° 4 kt METAR LFCK 161930Z AUTO 14004KT 120V180 CAVOK 21/18 Q1010 NOSIG
21:00
V
22 °C 10 km+ - 190° 190° 3 kt METAR LFCK 161900Z AUTO 19003KT 160V220 CAVOK 22/18 Q1009 NOSIG
20:30
V
23 °C 10 km+ - 160° 160° 5 kt METAR LFCK 161830Z AUTO 16005KT CAVOK 23/19 Q1009 NOSIG
20:00
V
23 °C 10 km+ 12.000 ft 170° 170° 4 kt METAR LFCK 161800Z AUTO 17004KT 140V200 9999 FEW041/// SCT098/// BKN120/// ///TCU 23/19 Q1009 BECMG SCT040
19:30
V
23 °C 10 km+ 11.000 ft 130° 130° 7 kt METAR LFCK 161730Z AUTO 13007KT 100V170 9999 FEW048/// SCT068/// BKN110/// ///CB 23/19 Q1009 NOSIG
19:00
V
23 °C 10 km+ - 140° 140° 7 kt METAR LFCK 161700Z AUTO 14007KT 9999 VCTS ///CB 23/19 Q1009 TEMPO VRB20G30KT 4000 TSRA
18:30
V
24 °C 10 km+ - 160° 160° 7 kt METAR LFCK 161630Z AUTO 16007KT 9999 TS ///CB 24/19 Q1009 TEMPO VRB20G30KT 4000 TSRA
18:00
V
22 °C 10 km+ 8.400 ft 070° 070° 5 kt METAR LFCK 161600Z AUTO 07005KT 040V100 9999 VCTS FEW033/// BKN084/// BKN120/// ///CB 22/19 Q1009 TEMPO VRB20G30KT 4000 TSRA
17:30
I
23 °C 1,7 km - 260° 260° 12 kt METAR LFCK 161530Z AUTO 26012KT 6000 1700 RA ///CB 23/19 Q1009 TEMPO VRB20G30KT 4000 TSRA
17:00
V
29 °C 10 km+ - 110° 110° 16 kt METAR LFCK 161500Z AUTO 11016KT 080V140 9999 ///CB 29/16 Q1007 TEMPO VRB25G40KT 2000
16:30
V
31 °C 10 km+ - 120° 120° 17 kt METAR LFCK 161430Z AUTO 12017KT 9999 ///CB 31/15 Q1007 TEMPO VRB20G30KT 4000 TSRA
16:00
V
31 °C 10 km+ - 130° 130° 19 kt METAR LFCK 161400Z AUTO 13019KT CAVOK 31/15 Q1006 TEMPO VRB25G40KT 2000 TSRAGR BECMG FEW060CB BKN100
15:30
V
32 °C 10 km+ - 120° 120° 22 kt METAR LFCK 161330Z AUTO 12022KT CAVOK 32/15 Q1006 TEMPO VRB25G40KT 2000 TSRAGR BECMG FEW060CB BKN100
15:00
V
32 °C 10 km+ - 120° 120° 20 kt METAR LFCK 161300Z AUTO 12020KT CAVOK 32/14 Q1007 TEMPO VRB25G40KT 2000 TSRAGR BECMG FEW060CB BKN100
14:30
V
33 °C 10 km+ - 120° 120° 20 kt METAR LFCK 161230Z AUTO 12020KT CAVOK 33/14 Q1007 TEMPO VRB25G40KT 2000 TSRAGR BECMG FEW060CB BKN100
14:00
V
33 °C 10 km+ - 120° 120° 20 kt METAR LFCK 161200Z AUTO 12020KT CAVOK 33/14 Q1007 TEMPO VRB20G30KT 4000 SHRA BECMG FEW060CB BKN100
13:30
V
32 °C 10 km+ - 120° 120° 20 kt METAR LFCK 161130Z AUTO 12020KT CAVOK 32/13 Q1007 TEMPO VRB20G30KT 4000 SHRA BECMG FEW060CB BKN100
13:00
V
32 °C 10 km+ - 140° 140° 17 kt METAR LFCK 161100Z AUTO 14017KT CAVOK 32/13 Q1007 BECMG 30010KT FEW060CB BKN100
12:30
V
32 °C 10 km+ - 120° 120° 20 kt METAR LFCK 161030Z AUTO 12020KT CAVOK 32/13 Q1007 BECMG 30010KT FEW060CB BKN100
12:00
V
30 °C 10 km+ - 120° 120° 20 kt METAR LFCK 161000Z AUTO 12020KT CAVOK 30/13 Q1007 BECMG 12016G26KT
11:30
V
30 °C 10 km+ - 130° 130° 20 - 30 kt METAR LFCK 160930Z AUTO 13020G30KT CAVOK 30/13 Q1007 NOSIG
11:00
V
30 °C 10 km+ - 130° 130° 18 kt METAR LFCK 160900Z AUTO 13018KT 090V150 CAVOK 30/13 Q1007 BECMG 12016G26KT
10:30
V
29 °C 10 km+ - 130° 130° 17 kt METAR LFCK 160830Z AUTO 13017KT CAVOK 29/12 Q1007 BECMG 12016G30KT
10:00
V
28 °C 10 km+ - 130° 130° 16 kt METAR LFCK 160800Z AUTO 13016KT CAVOK 28/12 Q1007 BECMG 12016G30KT
09:30
V
27 °C 10 km+ - 130° 130° 18 kt METAR LFCK 160730Z AUTO 13018KT CAVOK 27/12 Q1007 BECMG 12016G30KT
09:00
V
26 °C 10 km+ - 130° 130° 13 kt METAR LFCK 160700Z AUTO 13013KT 100V160 CAVOK 26/12 Q1008 BECMG 12016G30KT
08:30
V
23 °C 10 km+ - 100° 100° 4 kt METAR LFCK 160630Z AUTO 10004KT 040V140 CAVOK 23/12 Q1008 BECMG 12016G30KT
08:00
V
21 °C 10 km+ - 100° 100° 7 kt METAR LFCK 160600Z AUTO 10007KT CAVOK 21/12 Q1008 BECMG 12016G30KT
07:30
V
19 °C 10 km+ - 120° 120° 10 kt METAR LFCK 160530Z AUTO 12010KT CAVOK 19/12 Q1008 BECMG 12016G30KT
07:00
V
18 °C 10 km+ - 100° 100° 6 kt METAR LFCK 160500Z AUTO 10006KT CAVOK 18/12 Q1008
06:30
V
18 °C 10 km+ - 090° 090° 4 kt METAR LFCK 160430Z AUTO 09004KT CAVOK 18/12 Q1009
06:00
V
17 °C 10 km+ - 100° 100° 4 kt METAR LFCK 160400Z AUTO 10004KT CAVOK 17/12 Q1009
05:30
V
17 °C 10 km+ - 110° 110° 5 kt METAR LFCK 160330Z AUTO 11005KT CAVOK 17/12 Q1009
05:00
V
17 °C 10 km+ - 090° 090° 5 kt METAR LFCK 160300Z AUTO 09005KT CAVOK 17/12 Q1009
04:30
V
18 °C 10 km+ - 120° 120° 5 kt METAR LFCK 160230Z AUTO 12005KT CAVOK 18/12 Q1009
04:00
V
18 °C 10 km+ - 080° 080° 5 kt METAR LFCK 160200Z AUTO 08005KT CAVOK 18/12 Q1009
03:30
V
19 °C 10 km+ - 080° 080° 3 kt METAR LFCK 160130Z AUTO 08003KT CAVOK 19/12 Q1010
03:00
V
18 °C 10 km+ - 100° 100° 4 kt METAR LFCK 160100Z AUTO 10004KT CAVOK 18/12 Q1010
02:30
V
19 °C 10 km+ - 080° 080° 4 kt METAR LFCK 160030Z AUTO 08004KT CAVOK 19/12 Q1010
02:00
V
20 °C 10 km+ - 120° 120° 6 kt METAR LFCK 160000Z AUTO 12006KT CAVOK 20/12 Q1010
01:30
V
20 °C 10 km+ - 090° 090° 4 kt METAR LFCK 152330Z AUTO 09004KT CAVOK 20/12 Q1010
01:00
V
21 °C 10 km+ - 130° 130° 5 kt METAR LFCK 152300Z AUTO 13005KT 090V160 CAVOK 21/13 Q1011
00:30
V
20 °C 10 km+ - 130° 130° 5 kt METAR LFCK 152230Z AUTO 13005KT CAVOK 20/12 Q1011
00:00
V
20 °C 10 km+ - 130° 130° 6 kt METAR LFCK 152200Z AUTO 13006KT CAVOK 20/12 Q1011

15. August 2022

Uhrzeit Code Wetter Temp. Sichtweite Wolkendecke Wind METAR/SPECI
23:30
V
21 °C 10 km+ - 140° 140° 7 kt METAR LFCK 152130Z AUTO 14007KT CAVOK 21/12 Q1011
23:00
V
22 °C 10 km+ - 140° 140° 4 kt METAR LFCK 152100Z AUTO 14004KT CAVOK 22/12 Q1011 NOSIG
22:30
V
23 °C 10 km+ - Var Var 1 kt METAR LFCK 152030Z AUTO VRB01KT CAVOK 23/12 Q1011 NOSIG
22:00
V
23 °C 10 km+ - Var Var 1 kt METAR LFCK 152000Z AUTO VRB01KT CAVOK 23/12 Q1010 NOSIG
21:30
V
25 °C 10 km+ - 330° 330° 5 kt METAR LFCK 151930Z AUTO 33005KT CAVOK 25/12 Q1010 NOSIG
21:00
V
26 °C 10 km+ - 320° 320° 7 kt METAR LFCK 151900Z AUTO 32007KT CAVOK 26/12 Q1010 NOSIG
20:30
V
27 °C 10 km+ - 330° 330° 8 kt METAR LFCK 151830Z AUTO 33008KT CAVOK 27/12 Q1009 NOSIG
20:00
V
28 °C 10 km+ - 310° 310° 8 kt METAR LFCK 151800Z AUTO 31008KT CAVOK 28/12 Q1009 NOSIG
19:30
V
28 °C 10 km+ - 330° 330° 6 kt METAR LFCK 151730Z AUTO 33006KT 290V360 CAVOK 28/12 Q1009 NOSIG
19:00
V
28 °C 10 km+ - 320° 320° 8 kt METAR LFCK 151700Z AUTO 32008KT 290V350 CAVOK 28/12 Q1009 NOSIG
18:30
V
29 °C 10 km+ - 300° 300° 7 kt METAR LFCK 151630Z AUTO 30007KT 250V350 CAVOK 29/12 Q1010 NOSIG
18:00
V
28 °C 10 km+ - 310° 310° 7 kt METAR LFCK 151600Z AUTO 31007KT 270V350 CAVOK 28/12 Q1010 NOSIG
17:30
V
29 °C 10 km+ - 320° 320° 8 kt METAR LFCK 151530Z AUTO 32008KT 270V360 CAVOK 29/13 Q1010 NOSIG
17:00
V
28 °C 10 km+ - 330° 330° 7 kt METAR LFCK 151500Z AUTO 33007KT 280V070 CAVOK 28/13 Q1010 NOSIG
16:30
V
28 °C 10 km+ - 310° 310° 10 kt METAR LFCK 151430Z AUTO 31010KT 270V340 CAVOK 28/13 Q1010 NOSIG
16:00
V
28 °C 10 km+ - 310° 310° 10 kt METAR LFCK 151400Z AUTO 31010KT 280V350 CAVOK 28/13 Q1010 NOSIG
15:30
V
28 °C 10 km+ - 310° 310° 9 kt METAR LFCK 151330Z AUTO 31009KT 250V010 CAVOK 28/14 Q1010 NOSIG
15:00
V
28 °C 10 km+ - 280° 280° 10 kt METAR LFCK 151300Z AUTO 28010KT 250V310 CAVOK 28/13 Q1011 NOSIG
14:30
V
27 °C 10 km+ - 330° 330° 10 kt METAR LFCK 151230Z AUTO 33010KT 280V020 9999 FEW048 27/13 Q1011 NOSIG
14:00
V
26 °C 10 km+ - 280° 280° 10 kt METAR LFCK 151200Z AUTO 28010KT 250V320 9999 SCT046 26/13 Q1011 NOSIG
Ältere Daten

Wir und Dritte verfolgen dein Internetverhalten auf unserer Website mit Cookies. Wenn du fortfährst, gehen wir davon aus, dass du mit unserer Cookie-Richtlinie einverstanden bist. Mehr erfahren